Time;durP1;ratioP1;P1;durP2;ratioP2;P2;SDS_P1;SDS_P2;PMS_P1;PMS_P2;Temp;Humidity;BMP_temperature;BMP_pressure;BME280_temperature;BME280_humidity;BME280_pressure;Samples;Min_cycle;Max_cycle;Signal;HPM_P1;HPM_P2
2022/10/16 00:01:39;;;;;;;1.75;1.50;;;;;13.00;93957.00;;;;7390356;19;20129;-76
2022/10/16 00:04:08;;;;;;;2.38;1.55;;;;;13.00;93957.00;;;;7394010;19;20129;-76
2022/10/16 00:06:35;;;;;;;1.75;1.60;;;;;13.10;93960.00;;;;7392649;19;20149;-76
2022/10/16 00:09:09;;;;;;;2.25;1.67;;;;;13.10;93957.00;;;;7390443;19;20327;-76
2022/10/16 00:11:39;;;;;;;2.13;1.85;;;;;13.10;93950.00;;;;7393389;19;20186;-75
2022/10/16 00:14:11;;;;;;;3.22;1.67;;;;;13.20;93949.00;;;;7392579;19;20167;-77
2022/10/16 00:16:45;;;;;;;2.05;1.83;;;;;13.10;93949.00;;;;7392069;19;20163;-76
2022/10/16 00:19:12;;;;;;;2.10;1.50;;;;;13.10;93949.00;;;;7390513;19;20175;-77
2022/10/16 00:21:40;;;;;;;3.35;1.50;;;;;13.00;93958.00;;;;7389478;19;21176;-75
2022/10/16 00:24:14;;;;;;;3.50;1.40;;;;;13.10;93957.00;;;;7400839;19;20132;-76
2022/10/16 00:26:44;;;;;;;3.90;1.50;;;;;13.10;93956.00;;;;7397657;19;20243;-76
2022/10/16 00:29:11;;;;;;;4.38;1.77;;;;;13.10;93951.00;;;;7398123;19;20149;-76
2022/10/16 00:31:45;;;;;;;2.75;1.65;;;;;13.10;93953.00;;;;7399429;19;20159;-76
2022/10/16 00:34:13;;;;;;;1.60;1.30;;;;;13.20;93950.00;;;;7397615;19;20129;-76
2022/10/16 00:36:47;;;;;;;2.47;1.80;;;;;13.20;93948.00;;;;7394695;19;20654;-77
2022/10/16 00:39:22;;;;;;;3.05;1.83;;;;;13.10;93948.00;;;;7397630;19;20135;-75
2022/10/16 00:41:49;;;;;;;2.58;1.30;;;;;13.20;93953.00;;;;7398746;19;20149;-76
2022/10/16 00:44:45;;;;;;;1.77;1.60;;;;;13.20;93963.00;;;;7394843;19;20192;-75
2022/10/16 00:47:27;;;;;;;2.03;1.90;;;;;13.20;93958.00;;;;7398411;19;20148;-76
2022/10/16 00:50:05;;;;;;;1.73;1.50;;;;;13.20;93953.00;;;;7401207;19;20177;-76
2022/10/16 00:52:45;;;;;;;3.00;1.65;;;;;13.20;93948.00;;;;7396465;19;20810;-75
2022/10/16 00:55:13;;;;;;;3.00;1.58;;;;;13.20;93957.00;;;;7397750;19;20149;-76
2022/10/16 00:57:54;;;;;;;3.05;1.65;;;;;13.20;93950.00;;;;7395198;19;20136;-76
2022/10/16 01:00:28;;;;;;;4.30;1.50;;;;;13.20;93960.00;;;;7399062;19;20472;-75
2022/10/16 01:03:02;;;;;;;3.05;1.58;;;;;13.20;93954.00;;;;7396544;19;20159;-77
2022/10/16 01:05:40;;;;;;;5.03;1.60;;;;;13.20;93964.00;;;;7396601;19;20141;-77
2022/10/16 01:08:25;;;;;;;2.88;1.58;;;;;13.20;93958.00;;;;7394426;19;20121;-77
2022/10/16 01:11:03;;;;;;;1.85;1.52;;;;;13.20;93961.00;;;;7397523;19;20133;-76
2022/10/16 01:13:45;;;;;;;2.45;1.92;;;;;13.10;93963.00;;;;7401509;19;20152;-76
2022/10/16 01:16:55;;;;;;;2.40;1.80;;;;;13.20;93965.00;;;;7397808;19;20153;-76
2022/10/16 01:20:01;;;;;;;4.20;1.88;;;;;13.20;93970.00;;;;7396954;19;20530;-76
2022/10/16 01:22:48;;;;;;;3.35;1.60;;;;;13.20;93967.00;;;;7394891;19;20159;-76
2022/10/16 01:25:44;;;;;;;3.28;1.88;;;;;13.20;93967.00;;;;7396327;19;20161;-76
2022/10/16 01:28:15;;;;;;;3.28;1.42;;;;;13.20;93966.00;;;;7395915;19;20208;-76
2022/10/16 01:30:53;;;;;;;3.53;1.80;;;;;13.20;93961.00;;;;7398625;19;20243;-76
2022/10/16 01:33:30;;;;;;;2.00;1.70;;;;;13.20;93957.00;;;;7399134;19;20140;-76
2022/10/16 01:36:16;;;;;;;2.13;1.63;;;;;13.10;93945.00;;;;7396130;19;20179;-75
2022/10/16 01:38:47;;;;;;;3.58;1.55;;;;;13.00;93956.00;;;;7395924;19;20128;-77
2022/10/16 01:41:30;;;;;;;4.45;1.73;;;;;13.00;93960.00;;;;7398493;19;20627;-75
2022/10/16 01:44:16;;;;;;;4.18;1.65;;;;;13.00;93952.00;;;;7395251;19;20603;-77
2022/10/16 01:46:53;;;;;;;2.20;1.60;;;;;13.10;93960.00;;;;7398431;19;20473;-76
2022/10/16 01:49:24;;;;;;;1.55;1.38;;;;;13.10;93958.00;;;;7394263;19;20129;-77
2022/10/16 01:52:05;;;;;;;3.03;1.55;;;;;13.20;93950.00;;;;7395351;19;20848;-77
2022/10/16 01:54:36;;;;;;;2.80;1.70;;;;;13.20;93959.00;;;;7395651;19;20128;-76
2022/10/16 01:57:15;;;;;;;1.48;1.38;;;;;13.30;93955.00;;;;7396521;19;20133;-75
2022/10/16 01:59:47;;;;;;;2.17;1.50;;;;;13.50;93955.00;;;;7399291;19;20125;-77
2022/10/16 02:02:26;;;;;;;1.85;1.48;;;;;13.70;93951.00;;;;7398357;19;20149;-77
2022/10/16 02:05:16;;;;;;;3.03;1.50;;;;;13.70;93953.00;;;;7401138;19;20125;-77
2022/10/16 02:07:54;;;;;;;1.55;1.30;;;;;13.80;93948.00;;;;7396327;19;20129;-76
2022/10/16 02:10:22;;;;;;;2.55;1.58;;;;;13.80;93944.00;;;;7396137;19;20615;-75
2022/10/16 02:13:02;;;;;;;7.32;1.45;;;;;13.80;93939.00;;;;7400528;19;20129;-76
2022/10/16 02:15:36;;;;;;;4.25;1.50;;;;;13.90;93939.00;;;;7396801;19;20627;-75
2022/10/16 02:18:05;;;;;;;3.55;1.60;;;;;13.80;93947.00;;;;7400432;19;20128;-76
2022/10/16 02:20:57;;;;;;;3.08;1.33;;;;;13.80;93936.00;;;;7394111;19;20125;-76
2022/10/16 02:23:54;;;;;;;1.50;1.40;;;;;13.80;93942.00;;;;7392919;19;20701;-76
2022/10/16 02:27:03;;;;;;;4.20;1.30;;;;;13.70;93947.00;;;;7396886;19;20612;-76
2022/10/16 02:29:53;;;;;;;1.45;1.20;;;;;13.90;93954.00;;;;7393487;19;20137;-75
2022/10/16 02:32:24;;;;;;;2.95;1.38;;;;;14.00;93957.00;;;;7395447;19;20609;-76
2022/10/16 02:35:12;;;;;;;2.10;1.10;;;;;14.00;93961.00;;;;7395738;19;20145;-76
2022/10/16 02:37:51;;;;;;;2.95;1.20;;;;;14.00;93953.00;;;;7395426;19;20149;-75
2022/10/16 02:40:26;;;;;;;1.63;0.95;;;;;13.90;93963.00;;;;7394736;19;20185;-76
2022/10/16 02:42:59;;;;;;;1.98;1.40;;;;;14.00;93962.00;;;;7396669;19;20602;-76
2022/10/16 02:45:34;;;;;;;1.33;1.10;;;;;13.90;93967.00;;;;7393797;19;20143;-76
2022/10/16 02:48:12;;;;;;;2.65;1.10;;;;;13.90;93960.00;;;;7392068;19;20135;-76
2022/10/16 02:50:39;;;;;;;1.25;1.10;;;;;13.90;93955.00;;;;7395602;19;20200;-76
2022/10/16 02:53:09;;;;;;;1.67;1.25;;;;;13.90;93955.00;;;;7393565;19;20133;-76
2022/10/16 02:55:42;;;;;;;1.20;1.02;;;;;13.80;93957.00;;;;7393186;19;20211;-76
2022/10/16 02:58:12;;;;;;;1.27;1.13;;;;;13.80;93960.00;;;;7394882;19;20584;-75
2022/10/16 03:00:39;;;;;;;3.53;1.17;;;;;13.90;93964.00;;;;7392082;19;20160;-75
2022/10/16 03:03:14;;;;;;;2.65;1.10;;;;;13.90;93968.00;;;;7391707;19;20155;-76
2022/10/16 03:05:45;;;;;;;1.52;1.23;;;;;13.80;93970.00;;;;7394075;19;20132;-76
2022/10/16 03:08:23;;;;;;;2.05;1.23;;;;;13.90;93975.00;;;;7395196;19;20149;-76
2022/10/16 03:10:57;;;;;;;5.32;1.00;;;;;13.80;93971.00;;;;7392657;19;20157;-77
2022/10/16 03:13:29;;;;;;;3.10;1.40;;;;;13.80;93977.00;;;;7392355;19;20121;-75
2022/10/16 03:15:56;;;;;;;2.25;1.05;;;;;13.70;93966.00;;;;7394287;19;20144;-76
2022/10/16 03:18:30;;;;;;;5.20;1.30;;;;;13.60;93970.00;;;;7392868;19;20160;-76
2022/10/16 03:21:00;;;;;;;4.53;1.10;;;;;13.60;93966.00;;;;7393599;19;20618;-77
2022/10/16 03:23:28;;;;;;;6.57;1.30;;;;;13.50;93976.00;;;;7390359;19;20493;-75
2022/10/16 03:26:02;;;;;;;2.97;1.70;;;;;13.60;93977.00;;;;7391666;19;20224;-76
2022/10/16 03:28:29;;;;;;;1.27;1.17;;;;;13.60;93975.00;;;;7389691;19;20453;-76
2022/10/16 03:30:56;;;;;;;2.58;1.27;;;;;13.60;93975.00;;;;7391360;19;20163;-78
2022/10/16 03:33:31;;;;;;;2.30;1.20;;;;;13.70;93969.00;;;;7392320;19;20489;-75
2022/10/16 03:36:11;;;;;;;2.75;1.23;;;;;13.70;93975.00;;;;7392913;19;20196;-76
2022/10/16 03:38:46;;;;;;;1.23;1.13;;;;;13.70;93968.00;;;;7390498;19;20129;-76
2022/10/16 03:41:13;;;;;;;1.70;1.20;;;;;13.70;93981.00;;;;7391922;19;20129;-76
2022/10/16 03:43:47;;;;;;;3.83;1.33;;;;;13.60;93973.00;;;;7391242;19;20152;-76
2022/10/16 03:46:20;;;;;;;3.75;1.10;;;;;13.70;93974.00;;;;7391863;19;20133;-76
2022/10/16 03:48:47;;;;;;;1.27;1.17;;;;;13.60;93979.00;;;;7393799;19;20524;-76
2022/10/16 03:51:15;;;;;;;1.50;1.40;;;;;13.60;93973.00;;;;7392427;19;20631;-75
2022/10/16 03:53:49;;;;;;;1.70;1.13;;;;;13.60;93971.00;;;;7389994;19;20147;-77
2022/10/16 03:56:19;;;;;;;1.20;1.10;;;;;13.60;93972.00;;;;7390040;19;20164;-76
2022/10/16 03:58:46;;;;;;;1.35;1.25;;;;;13.60;93971.00;;;;7396605;19;20136;-77
2022/10/16 04:01:20;;;;;;;3.20;1.08;;;;;13.60;93970.00;;;;7398568;19;20144;-76
2022/10/16 04:03:48;;;;;;;1.20;1.10;;;;;13.60;93964.00;;;;7397886;19;20145;-76
2022/10/16 04:06:15;;;;;;;1.42;1.10;;;;;13.60;93960.00;;;;7398627;19;20156;-76
2022/10/16 04:08:49;;;;;;;1.98;1.15;;;;;13.60;93964.00;;;;7399471;19;20152;-76
2022/10/16 04:11:16;;;;;;;3.08;1.20;;;;;13.70;93964.00;;;;7399354;19;20621;-76
2022/10/16 04:13:44;;;;;;;6.20;1.70;;;;;13.70;93962.00;;;;7399868;19;20149;-76
2022/10/16 04:16:18;;;;;;;5.55;1.60;;;;;13.70;93977.00;;;;7398651;19;20151;-76
2022/10/16 04:18:46;;;;;;;2.13;1.40;;;;;13.60;93973.00;;;;7395786;19;20129;-77
2022/10/16 04:21:13;;;;;;;3.05;1.33;;;;;13.60;93971.00;;;;7399451;19;20144;-77
2022/10/16 04:23:47;;;;;;;2.17;1.58;;;;;13.70;93971.00;;;;7396020;19;20151;-76
2022/10/16 04:26:15;;;;;;;1.63;1.23;;;;;13.60;93976.00;;;;7398856;19;20156;-75
2022/10/16 04:28:48;;;;;;;2.00;1.30;;;;;13.60;93978.00;;;;7397677;19;20139;-75
2022/10/16 04:31:22;;;;;;;1.40;1.13;;;;;13.70;93978.00;;;;7400003;19;20178;-76
2022/10/16 04:33:50;;;;;;;3.63;1.38;;;;;13.80;93986.00;;;;7401535;19;20617;-76
2022/10/16 04:36:17;;;;;;;1.30;1.10;;;;;13.80;93990.00;;;;7396256;19;20176;-76
2022/10/16 04:39:07;;;;;;;3.83;1.38;;;;;13.70;93993.00;;;;7399712;19;20121;-77
2022/10/16 04:41:35;;;;;;;1.92;1.17;;;;;13.70;94005.00;;;;7400258;19;20133;-76
2022/10/16 04:44:16;;;;;;;1.42;1.15;;;;;13.80;94006.00;;;;7394956;19;20137;-76
2022/10/16 04:46:44;;;;;;;4.43;1.30;;;;;13.60;94012.00;;;;7398885;19;20137;-76
2022/10/16 04:49:11;;;;;;;1.80;1.35;;;;;13.60;94011.00;;;;7398582;19;20219;-75
2022/10/16 04:51:45;;;;;;;4.18;1.35;;;;;13.50;94006.00;;;;7396739;19;20758;-76
2022/10/16 04:54:15;;;;;;;4.65;1.60;;;;;13.60;94000.00;;;;7400100;19;20618;-77
2022/10/16 04:56:47;;;;;;;3.92;1.55;;;;;13.40;94011.00;;;;7396435;19;20141;-76
2022/10/16 04:59:27;;;;;;;5.13;1.67;;;;;13.30;94006.00;;;;7395648;19;20125;-76
2022/10/16 05:01:54;;;;;;;3.22;1.40;;;;;13.20;93997.00;;;;7396265;19;20623;-76
2022/10/16 05:04:22;;;;;;;1.50;1.40;;;;;13.20;93997.00;;;;7394670;19;20583;-78
2022/10/16 05:06:55;;;;;;;3.20;1.25;;;;;13.20;94003.00;;;;7397377;19;20156;-76
2022/10/16 05:09:23;;;;;;;7.53;1.50;;;;;13.20;94012.00;;;;7393137;19;20145;-76
2022/10/16 05:11:50;;;;;;;3.42;1.80;;;;;13.30;94012.00;;;;7397971;19;20148;-76
2022/10/16 05:14:24;;;;;;;6.68;1.40;;;;;13.20;94013.00;;;;7394289;19;20147;-75
2022/10/16 05:16:52;;;;;;;4.72;1.42;;;;;13.30;94016.00;;;;7397843;19;20163;-76
2022/10/16 05:19:19;;;;;;;7.43;1.80;;;;;13.10;94021.00;;;;7396218;19;20147;-76
2022/10/16 05:21:57;;;;;;;2.47;1.45;;;;;13.00;94019.00;;;;7396618;19;20120;-77
2022/10/16 05:24:25;;;;;;;2.17;1.45;;;;;13.10;94019.00;;;;7393349;19;20133;-78
2022/10/16 05:26:52;;;;;;;3.95;1.77;;;;;13.10;94023.00;;;;7397088;19;20567;-76
2022/10/16 05:29:27;;;;;;;6.00;1.80;;;;;13.10;94019.00;;;;7397938;19;20132;-77
2022/10/16 05:31:54;;;;;;;1.88;1.48;;;;;13.00;94016.00;;;;7399991;19;20129;-76
2022/10/16 05:34:29;;;;;;;4.05;1.55;;;;;13.10;94026.00;;;;7393559;19;20151;-75
2022/10/16 05:37:10;;;;;;;2.40;1.52;;;;;13.00;94030.00;;;;7393027;19;20236;-76
2022/10/16 05:39:44;;;;;;;8.43;1.77;;;;;13.00;94034.00;;;;7397308;19;20637;-76
2022/10/16 05:42:19;;;;;;;4.88;1.80;;;;;13.00;94039.00;;;;7395672;19;20162;-76
2022/10/16 05:44:49;;;;;;;3.85;1.52;;;;;13.00;94031.00;;;;7392823;19;20136;-77
2022/10/16 05:47:16;;;;;;;3.25;1.70;;;;;12.90;94021.00;;;;7394092;19;20609;-76
2022/10/16 05:49:51;;;;;;;6.63;1.73;;;;;13.00;94031.00;;;;7397755;19;20129;-76
2022/10/16 05:52:18;;;;;;;2.40;1.70;;;;;13.00;94038.00;;;;7392816;19;20764;-76
2022/10/16 05:54:55;;;;;;;3.08;1.50;;;;;13.00;94037.00;;;;7396966;19;20527;-77
2022/10/16 05:57:31;;;;;;;2.20;1.52;;;;;13.00;94037.00;;;;7393281;19;20139;-77
2022/10/16 05:59:58;;;;;;;4.68;1.75;;;;;13.10;94047.00;;;;7394805;19;20475;-78
2022/10/16 06:02:33;;;;;;;2.85;1.60;;;;;13.20;94046.00;;;;7398112;19;20153;-78
2022/10/16 06:05:07;;;;;;;8.45;1.63;;;;;13.20;94049.00;;;;7400058;19;20169;-77
2022/10/16 06:07:36;;;;;;;2.88;1.75;;;;;13.30;94047.00;;;;7395036;19;20232;-77
2022/10/16 06:10:09;;;;;;;1.80;1.67;;;;;13.30;94037.00;;;;7401052;19;20196;-78
2022/10/16 06:12:43;;;;;;;2.03;1.55;;;;;13.30;94037.00;;;;7401083;19;20149;-78
2022/10/16 06:15:12;;;;;;;4.10;1.70;;;;;13.20;94038.00;;;;7397054;19;20124;-79
2022/10/16 06:17:40;;;;;;;2.03;1.70;;;;;13.20;94043.00;;;;7398072;19;20180;-79
2022/10/16 06:20:14;;;;;;;2.65;1.50;;;;;13.20;94047.00;;;;7395083;19;20140;-78
2022/10/16 06:22:42;;;;;;;3.20;1.55;;;;;13.30;94047.00;;;;7395665;19;20197;-78
2022/10/16 06:25:09;;;;;;;2.30;1.80;;;;;13.30;94054.00;;;;7396187;19;20156;-78
2022/10/16 06:27:43;;;;;;;2.33;1.83;;;;;13.40;94058.00;;;;7395795;19;20136;-77
2022/10/16 06:30:10;;;;;;;4.47;1.70;;;;;13.50;94061.00;;;;7393631;19;20121;-77
2022/10/16 06:32:56;;;;;;;3.22;1.65;;;;;13.60;94051.00;;;;7391134;19;20145;-76
2022/10/16 06:35:46;;;;;;;3.05;1.55;;;;;13.60;94055.00;;;;7396523;19;20143;-76
2022/10/16 06:38:21;;;;;;;3.88;1.60;;;;;13.70;94059.00;;;;7393385;19;20476;-76
2022/10/16 06:40:54;;;;;;;2.65;1.73;;;;;13.80;94061.00;;;;7391853;19;20140;-76
2022/10/16 06:43:22;;;;;;;3.72;1.63;;;;;13.90;94052.00;;;;7393588;19;20153;-76
2022/10/16 06:45:56;;;;;;;2.03;1.77;;;;;13.90;94069.00;;;;7391110;19;20139;-77
2022/10/16 06:48:32;;;;;;;2.72;1.60;;;;;14.00;94074.00;;;;7392794;19;20207;-76
2022/10/16 06:51:06;;;;;;;10.40;1.80;;;;;14.00;94074.00;;;;7392379;19;20201;-76
2022/10/16 06:53:46;;;;;;;2.45;1.48;;;;;14.00;94081.00;;;;7394123;19;20141;-76
2022/10/16 06:56:31;;;;;;;4.00;1.50;;;;;14.20;94086.00;;;;7394162;19;20171;-76
2022/10/16 06:59:05;;;;;;;1.90;1.50;;;;;14.20;94103.00;;;;7395563;19;20165;-76
2022/10/16 07:01:33;;;;;;;2.08;1.33;;;;;14.20;94097.00;;;;7392374;19;20133;-76
2022/10/16 07:04:02;;;;;;;3.13;1.70;;;;;14.20;94105.00;;;;7395173;19;20669;-76
2022/10/16 07:06:36;;;;;;;1.95;1.60;;;;;14.20;94110.00;;;;7391841;19;20609;-78
2022/10/16 07:09:06;;;;;;;6.53;1.60;;;;;14.30;94108.00;;;;7393113;19;20129;-76
2022/10/16 07:11:34;;;;;;;1.50;1.40;;;;;14.30;94107.00;;;;7392391;19;20159;-77
2022/10/16 07:14:19;;;;;;;3.83;1.65;;;;;14.40;94108.00;;;;7395642;19;20144;-76
2022/10/16 07:16:46;;;;;;;2.67;1.30;;;;;14.50;94107.00;;;;7393319;19;20211;-77
2022/10/16 07:19:25;;;;;;;3.03;1.30;;;;;14.70;94104.00;;;;7390629;19;20132;-78
2022/10/16 07:21:57;;;;;;;3.00;1.60;;;;;14.80;94108.00;;;;7394285;19;20176;-76
2022/10/16 07:24:31;;;;;;;2.35;1.52;;;;;15.10;94113.00;;;;7391377;19;20472;-75
2022/10/16 07:27:01;;;;;;;1.83;1.42;;;;;15.30;94114.00;;;;7394867;19;20536;-75
2022/10/16 07:29:28;;;;;;;2.13;1.77;;;;;15.40;94115.00;;;;7389022;19;20250;-76
2022/10/16 07:32:03;;;;;;;1.40;1.30;;;;;15.50;94112.00;;;;7390835;19;20157;-76
2022/10/16 07:34:30;;;;;;;5.35;1.30;;;;;15.70;94123.00;;;;7391447;19;20132;-76
2022/10/16 07:37:04;;;;;;;1.35;1.20;;;;;15.90;94116.00;;;;7389410;19;20187;-76
2022/10/16 07:39:38;;;;;;;1.90;1.30;;;;;16.00;94119.00;;;;7390646;19;20164;-76
2022/10/16 07:42:07;;;;;;;2.15;1.30;;;;;16.20;94124.00;;;;7393413;19;20149;-76
2022/10/16 07:44:35;;;;;;;1.35;1.25;;;;;16.30;94117.00;;;;7393799;19;20141;-77
2022/10/16 07:47:09;;;;;;;2.42;1.42;;;;;16.50;94117.00;;;;7385090;19;20592;-75
2022/10/16 07:49:39;;;;;;;1.35;1.25;;;;;16.60;94129.00;;;;7393754;19;20172;-75
2022/10/16 07:52:07;;;;;;;6.63;1.40;;;;;16.70;94125.00;;;;7389619;19;20519;-75
2022/10/16 07:54:48;;;;;;;1.73;1.50;;;;;17.10;94129.00;;;;7393640;19;20158;-75
2022/10/16 07:57:19;;;;;;;3.28;1.50;;;;;17.10;94127.00;;;;7390718;19;20149;-75
2022/10/16 07:59:54;;;;;;;1.65;1.20;;;;;17.60;94134.00;;;;7391849;19;20121;-75
2022/10/16 08:02:22;;;;;;;4.55;1.40;;;;;17.60;94134.00;;;;7390622;19;20579;-75
2022/10/16 08:04:50;;;;;;;4.97;1.05;;;;;17.40;94143.00;;;;7395610;19;20452;-75
2022/10/16 08:07:26;;;;;;;3.25;1.35;;;;;17.30;94163.00;;;;7392860;19;20686;-75
2022/10/16 08:10:00;;;;;;;2.25;1.38;;;;;17.10;94162.00;;;;7393727;19;20500;-75
2022/10/16 08:12:37;;;;;;;1.55;1.10;;;;;17.00;94167.00;;;;7392069;19;20201;-76
2022/10/16 08:18:39;;;;;;;1.50;1.40;;;;;17.10;94171.00;;;;7385290;19;20611;-75
2022/10/16 08:21:18;;;;;;;1.20;1.10;;;;;17.10;94168.00;;;;7388499;19;20167;-76
2022/10/16 08:23:48;;;;;;;3.17;1.33;;;;;17.20;94163.00;;;;7391426;19;20135;-78
2022/10/16 08:26:26;;;;;;;2.72;1.30;;;;;17.30;94160.00;;;;7391948;19;20144;-75
2022/10/16 08:28:54;;;;;;;5.03;1.30;;;;;17.30;94168.00;;;;7390498;19;20193;-76
2022/10/16 08:31:22;;;;;;;4.38;1.27;;;;;17.20;94168.00;;;;7388527;19;20137;-76
2022/10/16 08:33:57;;;;;;;3.53;1.50;;;;;17.10;94179.00;;;;7389409;19;20137;-75
2022/10/16 08:36:31;;;;;;;2.90;1.20;;;;;17.00;94183.00;;;;7393523;19;20171;-75
2022/10/16 08:39:17;;;;;;;2.67;1.60;;;;;16.90;94186.00;;;;7390504;19;20144;-75
2022/10/16 08:42:12;;;;;;;2.67;1.15;;;;;16.80;94193.00;;;;7390560;19;20160;-75
2022/10/16 08:45:06;;;;;;;2.25;1.30;;;;;16.80;94197.00;;;;7398702;19;20148;-77
2022/10/16 08:47:47;;;;;;;2.05;1.42;;;;;16.80;94195.00;;;;7397107;19;20749;-76
2022/10/16 08:50:29;;;;;;;3.45;1.52;;;;;16.80;94185.00;;;;7398774;19;20148;-75
2022/10/16 08:52:58;;;;;;;3.28;1.55;;;;;16.90;94179.00;;;;7395076;19;20144;-76
2022/10/16 08:55:46;;;;;;;7.10;1.50;;;;;17.40;94181.00;;;;7396464;19;20599;-76
2022/10/16 08:58:16;;;;;;;2.92;1.30;;;;;17.50;94190.00;;;;7396072;19;20156;-75
2022/10/16 09:00:55;;;;;;;1.50;1.35;;;;;17.70;94193.00;;;;7396475;19;20160;-75
2022/10/16 09:03:44;;;;;;;6.13;1.48;;;;;17.70;94196.00;;;;7397840;19;20180;-76
2022/10/16 09:06:30;;;;;;;4.20;1.23;;;;;17.60;94202.00;;;;7395195;19;20148;-75
2022/10/16 09:09:25;;;;;;;2.50;1.50;;;;;17.50;94197.00;;;;7396046;19;20125;-75
2022/10/16 09:12:09;;;;;;;1.63;1.33;;;;;17.50;94205.00;;;;7397931;19;20136;-75
2022/10/16 09:15:02;;;;;;;8.45;1.50;;;;;17.50;94200.00;;;;7398143;19;20960;-75
2022/10/16 09:17:52;;;;;;;1.85;1.23;;;;;17.40;94198.00;;;;7396907;19;20136;-75
2022/10/16 09:20:31;;;;;;;1.88;1.10;;;;;17.70;94202.00;;;;7397571;19;20164;-76
2022/10/16 09:23:05;;;;;;;3.45;1.60;;;;;17.90;94199.00;;;;7396861;19;20599;-76
2022/10/16 09:25:36;;;;;;;2.38;1.23;;;;;18.00;94203.00;;;;7397055;19;20121;-75
2022/10/16 09:28:03;;;;;;;3.90;1.55;;;;;18.40;94206.00;;;;7396103;19;20580;-74
2022/10/16 09:30:40;;;;;;;1.40;1.20;;;;;18.50;94212.00;;;;7388502;19;20176;-75
2022/10/16 09:33:10;;;;;;;2.45;1.30;;;;;18.40;94202.00;;;;7397524;19;20125;-76
2022/10/16 09:35:40;;;;;;;3.00;1.30;;;;;19.40;94199.00;;;;7395794;19;20163;-76
2022/10/16 09:38:32;;;;;;;1.80;1.30;;;;;20.10;94202.00;;;;7396281;19;20137;-77
2022/10/16 09:41:17;;;;;;;2.28;1.30;;;;;20.90;94207.00;;;;7394532;19;20153;-75
2022/10/16 09:44:01;;;;;;;1.75;1.25;;;;;22.00;94202.00;;;;7396380;19;20160;-76
2022/10/16 09:46:33;;;;;;;3.40;1.35;;;;;22.30;94202.00;;;;7396680;19;20157;-75
2022/10/16 09:49:21;;;;;;;2.33;1.30;;;;;21.90;94211.00;;;;7397861;19;20173;-74
2022/10/16 09:51:49;;;;;;;3.15;1.10;;;;;21.50;94214.00;;;;7396923;19;20528;-76
2022/10/16 09:54:24;;;;;;;1.40;1.02;;;;;21.30;94223.00;;;;7387908;19;20586;-76
2022/10/16 09:57:06;;;;;;;1.38;1.20;;;;;21.00;94223.00;;;;7386309;19;20498;-76
2022/10/16 09:59:49;;;;;;;3.38;1.30;;;;;20.80;94237.00;;;;7393777;19;20157;-74
2022/10/16 10:02:22;;;;;;;4.80;1.10;;;;;20.60;94238.00;;;;7395523;19;20588;-76
2022/10/16 10:05:00;;;;;;;3.20;1.20;;;;;20.50;94234.00;;;;7398209;19;20219;-76
2022/10/16 10:07:34;;;;;;;2.25;1.30;;;;;20.30;94241.00;;;;7396382;19;20534;-76
2022/10/16 10:10:29;;;;;;;1.48;1.10;;;;;20.20;94242.00;;;;7387507;19;20616;-77
2022/10/16 10:12:57;;;;;;;2.33;1.33;;;;;20.10;94245.00;;;;7395037;19;20204;-77
2022/10/16 10:15:36;;;;;;;2.53;1.35;;;;;20.10;94247.00;;;;7399328;19;20143;-77
2022/10/16 10:18:19;;;;;;;2.45;1.40;;;;;20.30;94255.00;;;;7398108;19;20152;-77
2022/10/16 10:21:01;;;;;;;1.55;1.15;;;;;20.60;94257.00;;;;7395562;19;20156;-75
2022/10/16 10:23:56;;;;;;;2.30;1.20;;;;;20.90;94258.00;;;;7391502;19;20189;-76
2022/10/16 10:26:32;;;;;;;1.65;1.23;;;;;21.40;94257.00;;;;7391822;19;20497;-75
2022/10/16 10:29:11;;;;;;;1.23;0.88;;;;;21.90;94262.00;;;;7393835;19;20624;-76
2022/10/16 10:31:54;;;;;;;5.97;1.23;;;;;22.10;94254.00;;;;7397230;19;20133;-77
2022/10/16 10:34:41;;;;;;;2.72;1.20;;;;;22.30;94253.00;;;;7396389;19;20192;-73
2022/10/16 10:37:54;;;;;;;2.20;1.23;;;;;22.10;94252.00;;;;7397355;19;20208;-77
2022/10/16 10:40:45;;;;;;;1.65;1.10;;;;;22.30;94257.00;;;;7396897;19;20144;-76
2022/10/16 10:43:40;;;;;;;1.73;1.00;;;;;22.30;94258.00;;;;7394862;19;20157;-76
2022/10/16 10:46:41;;;;;;;3.63;1.45;;;;;22.00;94259.00;;;;7392183;19;20161;-74
2022/10/16 10:49:24;;;;;;;1.30;1.20;;;;;21.90;94258.00;;;;7390334;19;20180;-76
2022/10/16 10:52:05;;;;;;;3.80;1.50;;;;;22.00;94265.00;;;;7393505;19;20179;-75
2022/10/16 10:54:43;;;;;;;2.25;1.20;;;;;22.20;94271.00;;;;7392423;19;20647;-76
2022/10/16 10:57:43;;;;;;;3.88;1.10;;;;;22.30;94265.00;;;;7391109;19;20475;-74
2022/10/16 11:00:26;;;;;;;2.08;1.38;;;;;22.70;94268.00;;;;7389249;19;20667;-77
2022/10/16 11:03:09;;;;;;;1.83;1.17;;;;;22.80;94277.00;;;;7389226;19;20128;-73
2022/10/16 11:05:55;;;;;;;1.60;1.05;;;;;22.20;94265.00;;;;7393948;19;20117;-76
2022/10/16 11:08:31;;;;;;;2.95;1.10;;;;;22.10;94271.00;;;;7383451;19;20147;-75
2022/10/16 11:11:15;;;;;;;3.05;1.02;;;;;22.00;94269.00;;;;7395732;19;20133;-76
2022/10/16 11:13:49;;;;;;;1.38;1.20;;;;;22.00;94275.00;;;;7391181;19;20214;-75
2022/10/16 11:16:28;;;;;;;3.58;1.50;;;;;22.00;94274.00;;;;7392769;19;20144;-76
2022/10/16 11:19:25;;;;;;;5.45;1.17;;;;;22.30;94274.00;;;;7392726;19;20136;-77
2022/10/16 11:22:19;;;;;;;1.58;1.20;;;;;22.30;94276.00;;;;7391367;19;20160;-77
2022/10/16 11:25:28;;;;;;;4.82;1.30;;;;;22.10;94262.00;;;;7392328;19;20511;-76
2022/10/16 11:28:32;;;;;;;2.25;1.10;;;;;21.90;94267.00;;;;7387012;19;20825;-75
2022/10/16 11:31:29;;;;;;;2.40;1.10;;;;;22.10;94260.00;;;;7389322;19;20129;-75
2022/10/16 11:34:21;;;;;;;2.92;1.10;;;;;22.50;94258.00;;;;7390893;19;20188;-75
2022/10/16 11:37:03;;;;;;;1.27;1.17;;;;;22.90;94257.00;;;;7389625;19;20632;-74
2022/10/16 11:39:47;;;;;;;2.05;1.20;;;;;22.40;94256.00;;;;7389254;19;20630;-75
2022/10/16 11:42:30;;;;;;;4.65;1.17;;;;;21.90;94261.00;;;;7390238;19;20748;-74
2022/10/16 11:45:09;;;;;;;2.15;1.20;;;;;21.50;94265.00;;;;7389829;19;20156;-76
2022/10/16 11:47:36;;;;;;;6.45;1.30;;;;;21.50;94262.00;;;;7387384;19;20162;-73
2022/10/16 11:50:50;;;;;;;1.25;1.15;;;;;21.30;94259.00;;;;7390736;19;20196;-76
2022/10/16 11:53:48;;;;;;;1.60;1.20;;;;;21.20;94266.00;;;;7392167;19;20144;-75
2022/10/16 11:56:21;;;;;;;1.13;1.02;;;;;21.10;94260.00;;;;7390081;19;20144;-75
2022/10/16 11:59:03;;;;;;;3.67;1.30;;;;;21.60;94262.00;;;;7385753;19;20191;-75
2022/10/16 12:01:45;;;;;;;2.63;1.00;;;;;21.70;94265.00;;;;7389536;19;20136;-76
2022/10/16 12:04:33;;;;;;;3.10;1.48;;;;;21.80;94260.00;;;;7389011;19;20137;-76
2022/10/16 12:07:09;;;;;;;3.85;1.30;;;;;21.90;94263.00;;;;7390020;19;20604;-74
2022/10/16 12:09:44;;;;;;;1.45;1.10;;;;;22.50;94261.00;;;;7387160;19;20137;-75
2022/10/16 12:12:37;;;;;;;4.70;1.40;;;;;22.80;94261.00;;;;7387340;19;20624;-75
2022/10/16 12:15:22;;;;;;;2.70;1.30;;;;;23.10;94268.00;;;;7384505;19;20137;-75
2022/10/16 12:18:23;;;;;;;5.93;1.48;;;;;22.80;94266.00;;;;7388053;19;21157;-74
2022/10/16 12:21:00;;;;;;;2.42;1.50;;;;;22.70;94274.00;;;;7391119;19;20624;-76
2022/10/16 12:23:28;;;;;;;2.10;1.40;;;;;22.20;94266.00;;;;7390619;19;20775;-75
2022/10/16 12:26:04;;;;;;;1.75;1.30;;;;;22.10;94262.00;;;;7390417;19;20157;-75
2022/10/16 12:28:41;;;;;;;4.68;1.27;;;;;21.80;94266.00;;;;7388938;19;20168;-75
2022/10/16 12:31:12;;;;;;;6.05;1.95;;;;;21.60;94277.00;;;;7392972;19;20156;-75
2022/10/16 12:34:01;;;;;;;4.35;1.77;;;;;21.60;94275.00;;;;7393082;19;20480;-74
2022/10/16 12:36:39;;;;;;;3.78;1.45;;;;;21.70;94279.00;;;;7390217;19;20176;-74
2022/10/16 12:39:30;;;;;;;4.70;1.63;;;;;22.70;94276.00;;;;7391905;19;20140;-75
2022/10/16 12:42:22;;;;;;;6.22;1.60;;;;;23.80;94262.00;;;;7392990;19;20595;-75
2022/10/16 12:44:57;;;;;;;2.35;1.80;;;;;23.00;94256.00;;;;7388348;19;20143;-75
2022/10/16 12:47:31;;;;;;;9.55;5.10;;;;;23.50;94268.00;;;;7392969;19;20141;-76
2022/10/16 12:50:33;;;;;;;3.50;1.52;;;;;23.30;94269.00;;;;7391509;19;20156;-75
2022/10/16 12:53:03;;;;;;;7.80;7.03;;;;;22.90;94278.00;;;;7392971;19;20129;-76
2022/10/16 12:55:54;;;;;;;3.75;1.48;;;;;22.00;94270.00;;;;7390502;19;20154;-74
2022/10/16 12:58:59;;;;;;;2.33;1.92;;;;;21.70;94284.00;;;;7392324;19;20137;-73
2022/10/16 13:01:37;;;;;;;2.45;1.80;;;;;21.50;94282.00;;;;7392466;19;20133;-74
2022/10/16 13:04:43;;;;;;;2.78;1.65;;;;;21.50;94282.00;;;;7390217;19;20192;-74
2022/10/16 13:07:41;;;;;;;2.40;1.58;;;;;21.30;94287.00;;;;7390274;19;20152;-74
2022/10/16 13:10:16;;;;;;;6.47;1.70;;;;;21.40;94286.00;;;;7391252;19;20228;-76
2022/10/16 13:13:07;;;;;;;4.00;1.90;;;;;21.30;94287.00;;;;7391304;19;20137;-73